Time;durP1;ratioP1;P1;durP2;ratioP2;P2;SDS_P1;SDS_P2;PMS_P1;PMS_P2;Temp;Humidity;BMP_temperature;BMP_pressure;BME280_temperature;BME280_humidity;BME280_pressure;Samples;Min_cycle;Max_cycle;Signal;HPM_P1;HPM_P2
2022/04/18 00:01:08;;;;;;;;;1.25;0.50;;;;;11.72;74.55;100102.25;146591;705;46030;-80
2022/04/18 00:04:00;;;;;;;;;0.00;0.00;;;;;11.74;74.12;100118.75;146587;576;46020;-85
2022/04/18 00:06:53;;;;;;;;;0.00;0.00;;;;;11.72;74.04;100115.25;146587;682;46016;-78
2022/04/18 00:09:45;;;;;;;;;0.00;0.00;;;;;11.70;74.56;100120.38;146589;659;47920;-79
2022/04/18 00:12:37;;;;;;;;;0.25;0.25;;;;;11.71;74.46;100118.66;146591;639;46016;-80
2022/04/18 00:15:29;;;;;;;;;0.00;0.00;;;;;11.75;74.59;100126.62;146592;618;46920;-79
2022/04/18 00:18:22;;;;;;;;;1.00;1.00;;;;;11.77;74.84;100127.56;146589;606;46918;-84
2022/04/18 00:21:14;;;;;;;;;1.50;1.00;;;;;11.82;74.59;100130.31;146593;575;47008;-87
2022/04/18 00:24:08;;;;;;;;;3.00;3.00;;;;;11.85;74.78;100130.47;146590;637;46017;-89
2022/04/18 00:27:01;;;;;;;;;0.00;0.00;;;;;11.84;75.28;100125.16;146594;613;47012;-85
2022/04/18 00:29:53;;;;;;;;;0.00;0.00;;;;;11.80;74.98;100125.06;146590;593;46010;-86
2022/04/18 00:32:45;;;;;;;;;0.00;0.00;;;;;11.73;74.84;100130.88;146584;575;47008;-86
2022/04/18 00:35:38;;;;;;;;;2.00;1.00;;;;;11.66;74.78;100128.87;146590;658;47010;-83
2022/04/18 00:38:30;;;;;;;;;0.00;0.00;;;;;11.61;74.51;100132.13;146592;578;46020;-80
2022/04/18 00:41:22;;;;;;;;;1.00;1.00;;;;;11.55;73.99;100131.06;146589;669;47010;-88
2022/04/18 00:44:14;;;;;;;;;1.25;1.25;;;;;11.51;73.20;100134.38;146594;682;46026;-89
2022/04/18 00:47:06;;;;;;;;;0.25;0.00;;;;;11.51;73.45;100128.31;146593;573;46016;-85
2022/04/18 00:49:59;;;;;;;;;0.00;0.00;;;;;11.51;73.49;100130.91;146596;569;46008;-88
2022/04/18 00:52:53;;;;;;;;;0.00;0.00;;;;;11.47;72.15;100122.13;146590;570;46012;-82
2022/04/18 00:55:45;;;;;;;;;0.00;0.00;;;;;11.47;71.55;100123.84;146593;666;46020;-81
2022/04/18 00:58:39;;;;;;;;;0.25;0.00;;;;;11.49;71.79;100120.44;146590;684;46016;-81
2022/04/18 01:01:31;;;;;;;;;1.50;0.50;;;;;11.53;72.67;100124.06;146586;673;47012;-79
2022/04/18 01:04:23;;;;;;;;;0.00;0.00;;;;;11.55;72.61;100122.37;146588;573;46016;-80
2022/04/18 01:07:16;;;;;;;;;0.00;0.00;;;;;11.57;71.71;100129.41;146593;583;47008;-81
2022/04/18 01:10:10;;;;;;;;;0.00;0.00;;;;;11.59;71.63;100120.78;146590;643;46016;-76
2022/04/18 01:13:02;;;;;;;;;0.00;0.00;;;;;11.64;71.56;100129.66;146592;601;46008;-81
2022/04/18 01:15:58;;;;;;;;;0.67;0.00;;;;;11.67;72.68;100137.56;146589;603;47012;-78
2022/04/18 01:18:51;;;;;;;;;0.00;0.00;;;;;11.68;72.96;100140.22;146592;602;46020;-78
2022/04/18 01:21:43;;;;;;;;;0.00;0.00;;;;;11.68;72.66;100135.03;146610;678;45017;-79
2022/04/18 01:30:56;;;;;;;;;0.00;0.00;;;;;11.75;73.97;100134.41;146612;610;46012;-77
2022/04/18 01:33:48;;;;;;;;;0.25;0.00;;;;;11.69;73.96;100129.00;146613;563;46008;-76
2022/04/18 01:36:40;;;;;;;;;0.00;0.00;;;;;11.65;73.67;100128.81;146614;729;46008;-76
2022/04/18 01:39:32;;;;;;;;;0.00;0.00;;;;;11.65;73.80;100128.81;146613;609;45008;-76
2022/04/18 01:42:24;;;;;;;;;0.00;0.00;;;;;11.67;74.07;100129.75;146614;577;46008;-75
2022/04/18 01:45:16;;;;;;;;;0.00;0.00;;;;;11.70;73.84;100133.34;146613;610;45031;-75
2022/04/18 01:48:09;;;;;;;;;0.00;0.00;;;;;11.73;74.00;100137.78;146615;718;46008;-76
2022/04/18 01:51:01;;;;;;;;;1.67;0.00;;;;;11.75;73.87;100146.53;146614;603;46009;-76
2022/04/18 01:53:53;;;;;;;;;0.00;0.00;;;;;11.77;73.37;100150.94;146612;614;45020;-76
2022/04/18 01:56:45;;;;;;;;;8.75;7.75;;;;;11.80;74.07;100145.84;146612;627;46010;-73
2022/04/18 01:59:37;;;;;;;;;0.25;0.25;;;;;11.79;74.29;100141.47;146610;724;46021;-72
2022/04/18 02:02:53;;;;;;;;;0.75;0.00;;;;;11.75;73.43;100147.41;146611;569;45016;-72
2022/04/18 02:05:47;;;;;;;;;0.50;0.00;;;;;11.73;74.38;100154.25;146613;579;45021;-74
2022/04/18 02:08:40;;;;;;;;;0.00;0.00;;;;;11.73;74.44;100153.38;146611;570;45918;-74
2022/04/18 02:11:32;;;;;;;;;1.00;1.00;;;;;11.76;74.93;100153.47;146615;572;45920;-74
2022/04/18 02:14:24;;;;;;;;;0.00;0.00;;;;;11.69;75.88;100159.28;146615;583;45016;-74
2022/04/18 02:17:16;;;;;;;;;0.00;0.00;;;;;11.56;75.66;100150.16;146615;610;45008;-79
2022/04/18 02:20:10;;;;;;;;;0.00;0.00;;;;;11.48;75.71;100156.75;146605;611;46017;-85
2022/04/18 02:23:01;;;;;;;;;0.00;0.00;;;;;11.44;75.32;100154.88;146593;585;46020;-87
2022/04/18 02:25:54;;;;;;;;;0.00;0.00;;;;;11.43;74.62;100154.00;146589;688;46016;-85
2022/04/18 02:28:46;;;;;;;;;0.00;0.00;;;;;11.46;73.03;100151.47;146586;573;46008;-87
2022/04/18 02:32:47;;;;;;;;;0.00;0.00;;;;;11.48;73.52;100156.75;146591;686;46010;-82
2022/04/18 02:34:50;;;;;;;;;0.00;0.00;;;;;11.50;73.72;100147.31;146594;591;46020;-80
2022/04/18 02:37:45;;;;;;;;;1.00;0.00;;;;;11.50;73.98;100155.09;146591;693;46012;-82
2022/04/18 02:40:37;;;;;;;;;0.00;0.00;;;;;11.54;74.46;100159.56;146594;611;46008;-76
2022/04/18 02:43:34;;;;;;;;;0.75;0.00;;;;;11.53;74.00;100150.03;146593;608;46010;-77
2022/04/18 02:46:26;;;;;;;;;0.00;0.00;;;;;11.55;74.35;100150.94;146592;651;46020;-78
2022/04/18 02:49:19;;;;;;;;;0.75;0.00;;;;;11.53;73.66;100150.91;146587;682;47010;-77
2022/04/18 02:52:13;;;;;;;;;0.00;0.00;;;;;11.52;74.33;100159.50;146592;570;47012;-77
2022/04/18 02:55:13;;;;;;;;;0.00;0.00;;;;;11.51;75.17;100155.16;146592;666;46016;-77
2022/04/18 02:58:07;;;;;;;;;0.25;0.00;;;;;11.48;74.60;100157.62;146589;608;46020;-76
2022/04/18 03:01:00;;;;;;;;;0.00;0.00;;;;;11.48;74.37;100162.81;146588;685;47010;-77
2022/04/18 03:03:52;;;;;;;;;1.50;1.50;;;;;11.49;74.02;100171.47;146593;681;47008;-77
2022/04/18 03:06:49;;;;;;;;;0.00;0.00;;;;;11.49;74.13;100168.88;146591;570;46919;-77
2022/04/18 03:09:41;;;;;;;;;0.00;0.00;;;;;11.49;74.33;100168.88;146591;661;46020;-77
2022/04/18 03:12:33;;;;;;;;;0.50;0.50;;;;;11.50;74.86;100168.97;146592;671;46017;-77
2022/04/18 03:15:25;;;;;;;;;0.00;0.00;;;;;11.50;74.01;100174.16;146593;706;47008;-78
2022/04/18 03:18:17;;;;;;;;;0.00;0.00;;;;;11.52;73.86;100177.69;146591;570;46028;-77
2022/04/18 03:21:10;;;;;;;;;0.00;0.00;;;;;11.54;73.73;100169.97;146592;571;46021;-76
2022/04/18 03:24:02;;;;;;;;;0.00;0.00;;;;;11.56;74.02;100168.31;146588;653;46016;-78
2022/04/18 03:26:54;;;;;;;;;0.00;0.00;;;;;11.59;73.71;100171.03;146588;689;46008;-72
2022/04/18 03:29:46;;;;;;;;;0.50;0.50;;;;;11.60;74.19;100169.31;146588;580;47010;-71
2022/04/18 03:32:38;;;;;;;;;0.50;0.50;;;;;11.57;73.90;100176.16;146597;565;46008;-71
2022/04/18 03:35:30;;;;;;;;;1.00;1.00;;;;;11.60;74.39;100166.72;146590;633;46016;-71
2022/04/18 03:41:32;;;;;;;;;1.50;0.75;;;;;11.52;75.04;100171.59;146588;571;46016;-71
2022/04/18 03:44:24;;;;;;;;;1.25;1.25;;;;;11.47;74.41;100167.97;146592;626;46020;-87
2022/04/18 03:47:18;;;;;;;;;2.00;2.00;;;;;11.40;75.24;100177.22;146589;586;46016;-83
2022/04/18 03:50:11;;;;;;;;;1.75;1.75;;;;;11.33;75.12;100167.41;146592;617;46021;-83
2022/04/18 03:53:03;;;;;;;;;0.50;0.00;;;;;11.32;75.06;100178.63;146586;663;46016;-78
2022/04/18 03:55:55;;;;;;;;;2.50;2.50;;;;;11.31;75.25;100177.75;146591;627;45020;-84
2022/04/18 03:58:47;;;;;;;;;0.50;0.50;;;;;11.33;75.27;100180.38;146592;566;46010;-84
2022/04/18 04:01:52;;;;;;;;;1.00;1.00;;;;;11.35;75.80;100180.47;146596;571;46008;-83
2022/04/18 04:08:35;;;;;;;;;0.00;0.00;;;;;11.34;75.16;100184.78;146591;633;46020;-74
2022/04/18 04:11:28;;;;;;;;;1.75;1.50;;;;;11.37;75.45;100186.59;146591;613;46016;-74
2022/04/18 04:14:20;;;;;;;;;1.00;1.00;;;;;11.37;75.61;100190.09;146594;610;46008;-76
2022/04/18 04:17:12;;;;;;;;;0.00;0.00;;;;;11.40;75.53;100191.91;146589;614;47012;-76
2022/04/18 04:20:04;;;;;;;;;1.00;1.00;;;;;11.44;75.37;100197.28;146592;630;46021;-81
2022/04/18 04:22:56;;;;;;;;;2.00;1.00;;;;;11.44;76.06;100199.00;146587;614;47010;-78
2022/04/18 04:25:50;;;;;;;;;3.00;3.00;;;;;11.41;76.83;100199.75;146587;641;46008;-78
2022/04/18 04:28:55;;;;;;;;;0.50;0.50;;;;;11.39;76.10;100214.38;146588;651;46016;-78
2022/04/18 04:31:47;;;;;;;;;1.00;1.00;;;;;11.36;76.02;100209.06;146592;592;47008;-79
2022/04/18 04:34:41;;;;;;;;;1.50;1.00;;;;;11.36;76.84;100209.06;146590;571;46918;-79
2022/04/18 04:37:33;;;;;;;;;1.75;1.75;;;;;11.36;76.89;100221.16;146590;565;46020;-78
2022/04/18 04:40:25;;;;;;;;;1.25;0.25;;;;;11.35;76.86;100219.41;146591;637;46016;-79
2022/04/18 04:43:20;;;;;;;;;0.00;0.00;;;;;11.37;76.36;100225.50;146595;569;45021;-78
2022/04/18 04:46:12;;;;;;;;;2.75;2.75;;;;;11.41;76.33;100223.13;146589;591;46016;-78
2022/04/18 04:49:05;;;;;;;;;3.75;3.75;;;;;11.48;75.94;100229.44;146594;592;46008;-78
2022/04/18 04:51:57;;;;;;;;;3.25;3.00;;;;;11.55;76.00;100237.50;146592;597;47010;-78
2022/04/18 04:54:49;;;;;;;;;2.50;1.25;;;;;11.54;76.41;100234.88;146585;628;46920;-87
2022/04/18 04:57:41;;;;;;;;;3.00;1.00;;;;;11.52;76.08;100240.00;146590;607;46016;-84
2022/04/18 05:00:44;;;;;;;;;0.75;0.75;;;;;11.48;75.34;100226.84;146591;565;46008;-81
2022/04/18 05:03:45;;;;;;;;;1.00;1.00;;;;;11.52;75.11;100237.41;146588;569;47012;-78
2022/04/18 05:06:37;;;;;;;;;0.75;0.75;;;;;11.55;75.23;100239.22;146595;591;46008;-81
2022/04/18 05:09:30;;;;;;;;;1.00;1.00;;;;;11.61;75.32;100242.06;146586;641;47012;-81
2022/04/18 05:12:28;;;;;;;;;1.00;1.00;;;;;11.66;74.91;100250.06;146594;577;46026;-84
2022/04/18 05:15:21;;;;;;;;;2.00;2.00;;;;;11.73;74.62;100250.34;146591;637;46010;-80
2022/04/18 05:18:14;;;;;;;;;1.00;1.00;;;;;11.80;73.95;100264.44;146595;576;46017;-80
2022/04/18 05:21:06;;;;;;;;;8.75;6.50;;;;;11.84;73.92;100263.75;146589;632;47010;-79
2022/04/18 05:24:05;;;;;;;;;4.00;4.00;;;;;11.90;73.85;100266.63;146587;645;46008;-86
2022/04/18 05:27:02;;;;;;;;;0.00;0.00;;;;;12.00;73.40;100270.47;146588;684;46017;-85
2022/04/18 05:29:54;;;;;;;;;0.00;0.00;;;;;11.99;72.97;100277.37;146591;577;46020;-84
2022/04/18 05:32:47;;;;;;;;;0.00;0.00;;;;;11.98;72.72;100280.78;146589;682;47011;-81
2022/04/18 05:35:39;;;;;;;;;1.50;1.50;;;;;11.97;72.34;100284.22;146592;589;47008;-81
2022/04/18 05:38:32;;;;;;;;;2.75;2.25;;;;;11.96;72.42;100277.25;146588;580;47010;-76
2022/04/18 05:41:24;;;;;;;;;1.00;0.25;;;;;11.97;71.52;100278.16;146593;564;46020;-76
2022/04/18 05:44:16;;;;;;;;;0.50;0.50;;;;;12.00;71.06;100280.84;146588;721;47010;-73
2022/04/18 05:47:10;;;;;;;;;0.50;0.00;;;;;12.02;71.03;100281.78;146592;572;45049;-72
2022/04/18 05:50:02;;;;;;;;;0.00;0.00;;;;;12.01;71.35;100286.09;146593;645;46016;-72
2022/04/18 05:52:54;;;;;;;;;1.75;0.25;;;;;11.96;71.05;100274.66;146587;682;46008;-71
2022/04/18 05:55:46;;;;;;;;;0.50;0.00;;;;;11.90;70.89;100282.22;146587;575;46017;-72
2022/04/18 05:58:41;;;;;;;;;1.00;1.00;;;;;11.85;70.92;100285.47;146592;626;46012;-72
2022/04/18 06:01:33;;;;;;;;;1.75;1.00;;;;;11.79;70.99;100286.06;146589;658;46012;-75
2022/04/18 06:04:27;;;;;;;;;0.75;0.50;;;;;11.71;70.76;100290.97;146595;596;46008;-76
2022/04/18 06:07:30;;;;;;;;;2.50;0.75;;;;;11.65;71.27;100287.22;146589;593;46016;-76
2022/04/18 06:10:24;;;;;;;;;1.75;1.75;;;;;11.64;71.20;100294.13;146592;646;46031;-79
2022/04/18 06:13:17;;;;;;;;;3.75;3.75;;;;;11.59;71.28;100310.34;146590;589;47010;-80
2022/04/18 06:16:36;;;;;;;;;3.50;3.50;;;;;11.60;71.72;100302.63;146592;651;47008;-83
2022/04/18 06:19:29;;;;;;;;;2.75;2.75;;;;;11.60;71.60;100304.34;146590;566;46017;-85
2022/04/18 06:22:26;;;;;;;;;3.00;3.00;;;;;11.59;71.60;100307.75;146587;591;46020;-85
2022/04/18 06:25:19;;;;;;;;;4.25;2.00;;;;;11.63;72.24;100320.94;146590;600;46017;-88
2022/04/18 06:28:14;;;;;;;;;3.00;3.00;;;;;11.67;71.65;100321.94;146594;628;46008;-88
2022/04/18 06:31:08;;;;;;;;;2.50;2.50;;;;;11.60;71.65;100323.41;146593;586;46010;-88
2022/04/18 06:34:02;;;;;;;;;0.50;0.50;;;;;11.62;71.84;100326.97;146597;569;45021;-89
2022/04/18 06:36:55;;;;;;;;;4.00;4.00;;;;;11.60;72.12;100335.50;146593;680;46010;-90
2022/04/18 06:39:50;;;;;;;;;6.00;5.50;;;;;11.59;72.89;100328.53;146589;696;46009;-90
2022/04/18 06:42:51;;;;;;;;;2.00;2.00;;;;;11.59;72.94;100331.13;146590;655;46012;-82
2022/04/18 06:45:44;;;;;;;;;2.00;1.75;;;;;11.63;73.03;100346.03;146591;598;47008;-81
2022/04/18 06:48:37;;;;;;;;;2.75;2.50;;;;;11.69;73.06;100347.16;146590;573;46017;-78
2022/04/18 06:51:30;;;;;;;;;4.00;3.00;;;;;11.72;72.34;100343.81;146586;604;46020;-80
2022/04/18 06:54:26;;;;;;;;;6.00;5.00;;;;;11.78;72.83;100344.94;146589;581;46016;-79
2022/04/18 06:57:18;;;;;;;;;2.50;2.50;;;;;11.84;72.65;100344.28;146593;605;46012;-78
2022/04/18 07:00:11;;;;;;;;;2.50;2.00;;;;;11.87;72.13;100349.66;146589;591;47012;-77
2022/04/18 07:03:08;;;;;;;;;5.50;4.00;;;;;11.93;72.65;100346.38;146591;564;47012;-77
2022/04/18 07:06:05;;;;;;;;;4.50;3.25;;;;;12.00;72.42;100359.69;146592;660;46918;-74
2022/04/18 07:08:59;;;;;;;;;5.75;5.75;;;;;12.05;71.92;100353.78;146591;639;46028;-79
2022/04/18 07:11:51;;;;;;;;;4.50;3.50;;;;;12.06;72.24;100356.47;146591;703;46010;-76
2022/04/18 07:14:45;;;;;;;;;2.00;2.00;;;;;12.08;72.38;100364.28;146592;620;46012;-75
2022/04/18 07:17:38;;;;;;;;;1.75;1.75;;;;;12.02;72.08;100360.66;146591;629;46010;-86
2022/04/18 07:20:32;;;;;;;;;4.25;4.25;;;;;12.03;72.56;100369.31;146584;569;47008;-76
2022/04/18 07:23:24;;;;;;;;;5.25;5.25;;;;;11.98;72.44;100381.25;146590;609;47010;-76
2022/04/18 07:26:16;;;;;;;;;6.00;4.00;;;;;11.98;72.21;100384.72;146592;593;48008;-87
2022/04/18 07:29:10;;;;;;;;;4.50;4.50;;;;;11.99;72.80;100383.00;146590;573;46918;-85
2022/04/18 07:32:03;;;;;;;;;3.25;1.50;;;;;12.01;72.39;100389.16;146593;677;46008;-85
2022/04/18 07:34:55;;;;;;;;;1.75;1.75;;;;;12.05;72.72;100387.56;146588;705;47010;-80
2022/04/18 07:41:04;;;;;;;;;4.50;4.50;;;;;12.18;73.25;100382.00;146590;666;46033;-86
2022/04/18 07:44:03;;;;;;;;;4.00;3.00;;;;;12.24;73.01;100385.78;146594;673;46020;-84
2022/04/18 07:46:55;;;;;;;;;4.75;3.25;;;;;12.34;72.64;100401.72;146589;653;47918;-86
2022/04/18 07:49:48;;;;;;;;;3.25;3.25;;;;;12.40;72.00;100407.16;146587;683;46020;-88
2022/04/18 07:52:42;;;;;;;;;5.00;3.75;;;;;12.44;71.91;100414.25;146589;611;46918;-88
2022/04/18 07:55:37;;;;;;;;;2.50;2.50;;;;;12.50;71.05;100413.59;146593;603;46008;-87
2022/04/18 07:58:32;;;;;;;;;2.75;2.75;;;;;12.53;71.69;100418.91;146595;604;45918;-84
2022/04/18 08:01:36;;;;;;;;;2.00;2.00;;;;;12.56;70.56;100424.25;146596;611;45021;-86
2022/04/18 08:05:08;;;;;;;;;0.25;0.25;;;;;11.66;70.21;100268.25;146596;571;46010;-84
2022/04/18 08:08:12;;;;;;;;;4.25;3.75;;;;;12.63;70.66;100434.91;146597;563;46008;-83
2022/04/18 08:11:17;;;;;;;;;2.00;2.00;;;;;12.70;69.95;100433.44;146591;564;45919;-80
2022/04/18 08:14:18;;;;;;;;;1.75;1.75;;;;;12.71;71.91;100446.53;146595;655;45020;-85
2022/04/18 08:17:16;;;;;;;;;2.00;2.00;;;;;12.74;70.89;100450.03;146595;604;45918;-86
2022/04/18 08:20:09;;;;;;;;;3.00;2.00;;;;;12.76;70.27;100444.06;146586;569;46020;-85
2022/04/18 08:23:03;;;;;;;;;1.25;0.75;;;;;12.78;70.01;100444.16;146590;640;47010;-84
2022/04/18 08:25:55;;;;;;;;;2.00;2.00;;;;;12.78;70.93;100445.03;146595;615;45021;-85
2022/04/18 08:28:49;;;;;;;;;1.75;1.75;;;;;12.80;71.76;100445.94;146588;647;46016;-86
2022/04/18 08:31:48;;;;;;;;;2.50;2.50;;;;;12.80;71.28;100445.06;146592;624;46021;-85
2022/04/18 08:34:41;;;;;;;;;1.00;1.00;;;;;12.74;70.60;100444.84;146589;566;47010;-85
2022/04/18 08:37:34;;;;;;;;;3.00;2.50;;;;;12.71;71.00;100446.53;146594;572;46008;-84
2022/04/18 08:40:31;;;;;;;;;0.50;0.25;;;;;12.68;70.80;100451.59;146590;684;46016;-86
2022/04/18 08:43:23;;;;;;;;;1.00;1.00;;;;;12.65;71.18;100442.81;146590;666;47012;-84
2022/04/18 08:46:16;;;;;;;;;1.00;1.00;;;;;12.62;71.34;100445.28;146591;569;46016;-87
2022/04/18 08:55:31;;;;;;;;;2.75;2.50;;;;;12.50;70.80;100439.59;146593;626;47010;-88
2022/04/18 08:58:26;;;;;;;;;1.75;1.75;;;;;12.44;71.37;100429.84;146591;698;46010;-88
2022/04/18 09:01:18;;;;;;;;;2.75;2.75;;;;;12.46;72.52;100435.97;146593;573;47008;-86
2022/04/18 09:04:11;;;;;;;;;1.75;1.75;;;;;12.51;71.95;100430.97;146590;600;47010;-86
2022/04/18 09:07:13;;;;;;;;;2.75;2.75;;;;;12.56;72.46;100426.84;146591;566;46020;-86
2022/04/18 09:10:05;;;;;;;;;2.75;2.75;;;;;12.60;71.64;100433.91;146592;663;46010;-89
2022/04/18 09:13:05;;;;;;;;;3.25;3.25;;;;;12.59;70.85;100426.97;146592;566;46020;-89
2022/04/18 09:15:59;;;;;;;;;1.75;1.00;;;;;12.61;71.17;100427.88;146592;580;47010;-88
2022/04/18 09:19:09;;;;;;;;;4.75;4.75;;;;;12.58;70.79;100433.84;146588;610;46008;-88
2022/04/18 09:22:08;;;;;;;;;3.75;3.00;;;;;12.58;70.04;100427.75;146591;582;47010;-88
2022/04/18 09:25:00;;;;;;;;;3.00;3.00;;;;;12.58;71.18;100428.66;146592;601;46008;-88
2022/04/18 09:28:00;;;;;;;;;3.00;2.50;;;;;12.59;70.44;100424.34;146591;573;46010;-88
2022/04/18 09:31:00;;;;;;;;;4.75;4.00;;;;;12.61;69.97;100423.56;146593;677;46020;-88
2022/04/18 09:34:00;;;;;;;;;2.50;2.50;;;;;12.60;69.24;100424.41;146591;595;46016;-90
2022/04/18 09:36:52;;;;;;;;;10.25;9.50;;;;;12.53;69.44;100430.22;146594;569;46008;-88
2022/04/18 09:39:54;;;;;;;;;94.33;80.33;;;;;12.47;69.06;100419.56;146591;632;46016;-92
2022/04/18 09:42:49;;;;;;;;;141.25;128.50;;;;;12.43;69.22;100417.69;146597;618;47008;-88
2022/04/18 09:45:41;;;;;;;;;23.00;23.00;;;;;12.38;68.94;100414.88;146589;636;46019;-90
2022/04/18 09:48:36;;;;;;;;;34.75;29.50;;;;;12.32;69.59;100406.84;146587;635;46008;-88
2022/04/18 09:51:37;;;;;;;;;7.00;6.25;;;;;12.27;69.89;100408.38;146587;663;46016;-89
2022/04/18 09:54:29;;;;;;;;;6.25;5.25;;;;;11.26;69.37;100238.97;146595;564;46021;-88
2022/04/18 09:57:26;;;;;;;;;59.75;48.00;;;;;12.19;69.38;100405.47;146587;575;46016;-89
2022/04/18 10:00:18;;;;;;;;;86.00;75.00;;;;;12.17;69.06;100414.91;146591;647;47008;-88
2022/04/18 10:03:10;;;;;;;;;168.25;150.50;;;;;12.16;69.66;100420.97;146596;566;46016;-86
2022/04/18 10:06:03;;;;;;;;;2.00;1.00;;;;;12.20;68.93;100421.97;146591;695;46920;-86
2022/04/18 10:08:56;;;;;;;;;42.25;33.50;;;;;12.22;68.82;100423.81;146592;583;46017;-88
2022/04/18 10:11:48;;;;;;;;;1.00;1.00;;;;;12.15;69.12;100429.59;146589;615;46020;-89
2022/04/18 10:14:42;;;;;;;;;1.00;1.00;;;;;12.14;69.12;100437.31;146589;634;47013;-87
2022/04/18 10:17:36;;;;;;;;;5.50;5.50;;;;;12.15;69.41;100431.28;146586;570;46018;-90
2022/04/18 10:20:53;;;;;;;;;1.50;1.25;;;;;12.25;69.18;100433.44;146588;726;47012;-89
2022/04/18 10:24:48;;;;;;;;;7.00;6.50;;;;;11.20;68.73;100253.41;146592;665;46008;-90
2022/04/18 10:28:20;;;;;;;;;13.00;11.75;;;;;11.05;68.76;100205.22;146586;564;47012;-87
2022/04/18 10:31:40;;;;;;;;;2.25;2.25;;;;;11.96;67.04;100352.63;146592;564;46008;-87
2022/04/18 10:34:32;;;;;;;;;3.00;3.00;;;;;12.43;68.30;100428.97;146590;593;46029;-87
2022/04/18 10:37:28;;;;;;;;;4.25;3.25;;;;;12.47;69.10;100430.84;146593;711;46020;-88
2022/04/18 10:40:20;;;;;;;;;15.25;14.25;;;;;12.58;67.04;100426.03;146589;570;46016;-90
2022/04/18 10:43:13;;;;;;;;;4.00;1.00;;;;;12.71;66.21;100423.09;146584;625;47008;-84
2022/04/18 10:46:24;;;;;;;;;4.75;3.50;;;;;12.74;67.50;100427.53;146588;566;46017;-89
2022/04/18 10:49:24;;;;;;;;;61.50;43.50;;;;;12.73;66.96;100433.56;146586;621;46008;-89
2022/04/18 10:52:32;;;;;;;;;80.00;63.00;;;;;12.71;65.61;100435.22;146585;586;46918;-86
2022/04/18 10:55:24;;;;;;;;;9.75;9.75;;;;;12.69;65.91;100426.47;146592;585;46020;-86
2022/04/18 10:58:21;;;;;;;;;8.75;6.00;;;;;12.72;64.95;100434.41;146593;598;46918;-87
2022/04/18 11:01:15;;;;;;;;;13.00;9.75;;;;;12.74;64.84;100430.16;146593;606;46021;-87
2022/04/18 11:04:13;;;;;;;;;6.50;3.75;;;;;12.77;65.41;100432.84;146589;642;46016;-89
2022/04/18 11:07:07;;;;;;;;;1.50;1.50;;;;;12.79;67.46;100423.37;146592;609;46008;-90
2022/04/18 11:10:01;;;;;;;;;1.25;1.25;;;;;12.75;65.61;100429.31;146591;611;46016;-89
2022/04/18 11:12:54;;;;;;;;;2.00;2.00;;;;;12.71;67.53;100427.44;146592;598;46020;-89
2022/04/18 11:15:46;;;;;;;;;3.00;2.25;;;;;12.67;65.44;100420.31;146590;648;46016;-89
2022/04/18 11:18:38;;;;;;;;;3.25;3.00;;;;;12.63;67.94;100429.72;146586;684;46008;-89
2022/04/18 11:22:17;;;;;;;;;4.00;3.25;;;;;12.54;65.92;100431.09;146592;643;46010;-86
2022/04/18 11:25:14;;;;;;;;;3.00;2.00;;;;;12.17;66.45;100430.53;146591;630;46020;-87
2022/04/18 11:28:07;;;;;;;;;2.00;1.00;;;;;11.91;67.50;100431.19;146591;578;46011;-85
2022/04/18 11:30:59;;;;;;;;;2.25;1.25;;;;;11.81;67.71;100437.69;146591;606;46021;-87
2022/04/18 11:33:52;;;;;;;;;3.00;1.75;;;;;11.88;68.23;100436.25;146589;606;47010;-86
2022/04/18 11:36:47;;;;;;;;;1.50;1.50;;;;;11.96;68.77;100432.25;146595;576;46008;-87
2022/04/18 11:39:53;;;;;;;;;1.50;1.50;;;;;12.11;67.90;100429.38;146592;570;46016;-87
2022/04/18 11:42:46;;;;;;;;;3.00;1.00;;;;;12.23;68.15;100435.97;146595;581;46020;-85
2022/04/18 11:45:39;;;;;;;;;3.00;3.00;;;;;12.37;68.78;100443.44;146591;607;46016;-85
2022/04/18 11:48:30;;;;;;;;;3.75;3.75;;;;;12.51;69.96;100441.38;146587;591;46020;-86
2022/04/18 11:51:41;;;;;;;;;6.25;5.50;;;;;12.60;67.90;100437.41;146590;625;46926;-84
2022/04/18 11:54:32;;;;;;;;;10.00;6.75;;;;;12.70;68.63;100433.44;146589;590;47008;-85
2022/04/18 11:57:25;;;;;;;;;10.25;10.25;;;;;12.77;69.00;100438.03;146590;616;46918;-85
2022/04/18 12:06:45;;;;;;;;;9.25;8.00;;;;;12.87;69.31;100442.78;146591;651;47011;-84
2022/04/18 12:09:39;;;;;;;;;8.75;8.50;;;;;12.88;69.42;100441.06;146590;565;47010;-85
2022/04/18 12:12:35;;;;;;;;;8.25;8.25;;;;;12.84;69.69;100434.84;146590;564;46008;-88
2022/04/18 12:15:29;;;;;;;;;16.00;15.75;;;;;12.90;70.37;100439.41;146589;584;46016;-86
2022/04/18 12:18:23;;;;;;;;;17.25;17.25;;;;;12.90;70.21;100440.28;146585;580;46020;-85
2022/04/18 12:21:16;;;;;;;;;11.25;10.75;;;;;12.95;69.98;100443.03;146587;590;47012;-86
2022/04/18 12:24:08;;;;;;;;;22.00;22.00;;;;;12.96;69.86;100437.03;146591;670;46020;-85
2022/04/18 12:27:01;;;;;;;;;12.75;12.25;;;;;12.97;69.25;100445.72;146584;576;47010;-81
2022/04/18 12:29:54;;;;;;;;;42.00;33.00;;;;;12.90;69.22;100436.81;146587;635;46020;-85
2022/04/18 12:32:48;;;;;;;;;12.75;11.00;;;;;12.85;69.58;100435.75;146585;580;46016;-85
2022/04/18 12:36:01;;;;;;;;;11.00;11.00;;;;;12.77;69.86;100424.13;146590;575;46020;-85
2022/04/18 12:38:54;;;;;;;;;4.00;4.00;;;;;12.78;68.44;100446.75;146586;614;47016;-83
2022/04/18 12:41:49;;;;;;;;;6.00;6.00;;;;;12.68;68.11;100440.31;146593;608;46020;-84
2022/04/18 12:44:42;;;;;;;;;8.50;6.00;;;;;12.62;69.10;100434.88;146589;636;47012;-86
2022/04/18 12:47:40;;;;;;;;;16.00;13.00;;;;;12.57;69.68;100437.28;146587;571;46008;-86
2022/04/18 12:50:48;;;;;;;;;10.75;9.00;;;;;12.56;69.66;100435.53;146583;577;47016;-86
2022/04/18 12:53:56;;;;;;;;;15.00;14.00;;;;;12.58;69.97;100435.56;146588;618;47008;-86
2022/04/18 12:56:50;;;;;;;;;5.50;5.50;;;;;12.61;71.57;100422.69;146585;583;46023;-84
2022/04/18 12:59:46;;;;;;;;;2.75;2.50;;;;;12.64;70.86;100421.06;146591;605;46921;-85
2022/04/18 13:02:39;;;;;;;;;3.25;2.75;;;;;12.65;71.73;100424.59;146593;576;46010;-87
2022/04/18 13:05:35;;;;;;;;;3.00;2.25;;;;;12.63;70.96;100419.31;146592;628;46021;-85
2022/04/18 13:08:27;;;;;;;;;5.00;4.50;;;;;12.62;70.11;100421.88;146589;579;46016;-85
2022/04/18 13:11:59;;;;;;;;;6.00;6.00;;;;;12.60;69.44;100424.41;146596;571;46008;-86
2022/04/18 13:15:04;;;;;;;;;3.00;3.00;;;;;12.64;69.48;100417.59;146591;565;46010;-85
2022/04/18 13:18:04;;;;;;;;;4.75;4.75;;;;;12.63;70.83;100406.31;146585;577;46008;-85
2022/04/18 13:20:57;;;;;;;;;3.00;3.00;;;;;12.66;69.05;100411.62;146590;658;46016;-86
2022/04/18 13:23:51;;;;;;;;;4.00;3.25;;;;;12.62;70.69;100407.16;146593;601;47008;-85
2022/04/18 13:26:45;;;;;;;;;6.00;6.00;;;;;12.62;70.84;100403.66;146587;581;47010;-84
2022/04/18 13:29:38;;;;;;;;;11.50;9.50;;;;;12.59;70.62;100391.44;146597;712;46008;-85
2022/04/18 13:32:32;;;;;;;;;7.25;5.75;;;;;12.76;70.78;100402.44;146589;720;46920;-86
2022/04/18 13:35:26;;;;;;;;;8.50;7.25;;;;;12.88;70.92;100389.91;146596;586;45021;-84
2022/04/18 13:38:18;;;;;;;;;6.25;5.00;;;;;12.94;69.56;100387.50;146592;565;46010;-84
2022/04/18 13:41:23;;;;;;;;;4.75;2.75;;;;;12.99;67.84;100385.09;146591;613;46020;-85
2022/04/18 13:44:19;;;;;;;;;4.50;3.25;;;;;13.03;69.05;100396.50;146592;610;46010;-86
2022/04/18 13:47:12;;;;;;;;;3.25;2.25;;;;;13.02;67.07;100394.69;146585;616;47012;-85
2022/04/18 13:50:05;;;;;;;;;1.25;0.50;;;;;12.99;65.98;100397.19;146589;668;47011;-85
2022/04/18 13:52:57;;;;;;;;;1.75;1.75;;;;;12.92;66.38;100389.16;146591;579;46020;-84
2022/04/18 13:55:52;;;;;;;;;4.75;3.00;;;;;12.88;67.67;100387.28;146589;595;47012;-85
2022/04/18 13:58:48;;;;;;;;;2.00;2.00;;;;;12.90;67.54;100396.06;146591;676;46021;-85
2022/04/18 14:01:43;;;;;;;;;4.50;3.25;;;;;12.94;67.88;100397.03;146590;588;47010;-86
2022/04/18 14:04:35;;;;;;;;;7.75;7.00;;;;;12.97;67.67;100397.16;146591;576;46918;-84